Time;durP1;ratioP1;P1;durP2;ratioP2;P2;SDS_P1;SDS_P2;PMS_P1;PMS_P2;Temp;Humidity;BMP_temperature;BMP_pressure;BME280_temperature;BME280_humidity;BME280_pressure;Samples;Min_cycle;Max_cycle;Signal;HPM_P1;HPM_P2
2021/08/29 00:03:16;;;;;;;31.42;6.87;;;;;;;13.04;84.25;99396.48;1844250;75;22475;-77
2021/08/29 00:05:43;;;;;;;23.38;7.47;;;;;;;13.02;84.30;99393.11;1821615;77;21685;-77
2021/08/29 00:08:09;;;;;;;26.23;8.28;;;;;;;13.03;84.35;99386.11;1758107;80;21069;-77
2021/08/29 00:10:36;;;;;;;29.17;9.30;;;;;;;13.10;84.46;99388.23;1765116;80;21369;-77
2021/08/29 00:13:03;;;;;;;15.05;9.30;;;;;;;13.10;84.31;99393.47;1763384;79;21844;-77
2021/08/29 00:15:30;;;;;;;33.23;8.13;;;;;;;13.12;84.44;99387.67;1755314;79;20954;-77
2021/08/29 00:17:56;;;;;;;41.28;8.10;;;;;;;13.12;84.23;99389.45;1757840;80;21500;-77
2021/08/29 00:20:23;;;;;;;11.12;7.00;;;;;;;13.09;84.28;99385.72;1760445;79;21127;-77
2021/08/29 00:22:50;;;;;;;14.87;6.30;;;;;;;13.10;84.41;99389.53;1740685;80;21065;-77
2021/08/29 00:25:16;;;;;;;15.00;6.10;;;;;;;13.10;84.40;99392.16;1763072;79;21507;-77
2021/08/29 00:27:43;;;;;;;14.95;5.87;;;;;;;13.10;84.48;99390.84;1731505;80;21060;-76
2021/08/29 00:30:11;;;;;;;31.33;6.93;;;;;;;13.15;84.58;99393.19;1766307;79;20954;-76
2021/08/29 00:32:38;;;;;;;8.03;5.00;;;;;;;13.16;84.56;99389.17;1755087;79;21025;-77
2021/08/29 00:35:06;;;;;;;16.52;6.00;;;;;;;13.13;84.63;99382.78;1726908;80;21010;-76
2021/08/29 00:37:32;;;;;;;53.95;7.35;;;;;;;13.11;84.56;99379.45;1752233;80;21024;-76
2021/08/29 00:40:00;;;;;;;45.30;6.73;;;;;;;13.10;84.66;99381.67;1762137;80;20942;-76
2021/08/29 00:44:15;;;;;;;38.20;7.10;;;;;;;13.19;84.80;99377.18;1838013;76;22672;-77
2021/08/29 00:46:43;;;;;;;45.92;5.53;;;;;;;13.14;84.84;99374.00;1817842;78;20962;-77
2021/08/29 00:49:16;;;;;;;65.50;5.28;;;;;;;13.09;84.93;99359.03;1791915;78;21058;-77
2021/08/29 00:51:43;;;;;;;48.35;4.75;;;;;;;13.09;84.93;99359.03;1815788;78;21317;-77
2021/08/29 00:54:09;;;;;;;32.95;4.50;;;;;;;13.25;84.99;99377.70;1825446;78;20949;-77
2021/08/29 00:56:36;;;;;;;30.68;3.77;;;;;;;13.26;85.03;99370.27;1827078;78;20941;-77
2021/08/29 00:59:04;;;;;;;49.25;4.47;;;;;;;13.30;85.08;99373.05;1820806;78;21523;-77
2021/08/29 01:01:39;;;;;;;76.12;4.87;;;;;;;13.29;84.93;99372.20;1815622;78;21463;-78
2021/08/29 01:05:09;;;;;;;82.27;5.00;;;;;;;13.34;85.07;99371.92;1862451;74;23351;-77
2021/08/29 01:07:47;;;;;;;82.22;4.75;;;;;;;13.32;85.17;99379.05;1822500;76;20983;-76
2021/08/29 01:10:27;;;;;;;75.00;5.35;;;;;;;13.34;85.10;99383.73;1827345;77;21876;-77
2021/08/29 01:12:56;;;;;;;55.23;4.65;;;;;;;13.36;85.25;99377.89;1798331;77;20975;-77
2021/08/29 01:15:27;;;;;;;109.52;4.80;;;;;;;13.39;85.23;99372.48;1837589;76;20947;-76
2021/08/29 01:17:57;;;;;;;54.35;5.00;;;;;;;13.38;85.19;99373.40;1832574;77;20947;-76
2021/08/29 01:20:47;;;;;;;62.30;4.72;;;;;;;13.38;85.19;99373.40;1798888;76;20936;-76
2021/08/29 01:23:14;;;;;;;58.05;5.10;;;;;;;13.30;85.27;99350.76;1835599;76;21644;-77
2021/08/29 01:25:46;;;;;;;15.43;4.90;;;;;;;13.43;85.38;99362.14;1824561;77;20951;-77
2021/08/29 01:28:17;;;;;;;16.25;4.83;;;;;;;13.34;85.18;99345.70;1753871;80;20993;-77
2021/08/29 01:31:04;;;;;;;21.12;4.40;;;;;;;13.41;85.54;99360.09;1756668;80;21503;-76
2021/08/29 01:33:31;;;;;;;10.10;4.55;;;;;;;13.41;85.54;99360.09;1803927;78;21636;-76
2021/08/29 01:35:58;;;;;;;15.90;4.92;;;;;;;13.39;85.32;99365.92;1787700;78;21048;-76
2021/08/29 01:38:26;;;;;;;25.85;5.42;;;;;;;13.41;85.49;99358.33;1790195;78;20954;-76
2021/08/29 01:40:53;;;;;;;14.20;5.17;;;;;;;13.45;85.61;99361.59;1801173;78;21127;-76
2021/08/29 01:43:20;;;;;;;17.05;5.05;;;;;;;13.48;85.58;99361.86;1792777;78;21406;-76
2021/08/29 01:45:47;;;;;;;28.65;5.53;;;;;;;13.52;85.71;99365.47;1786577;78;20981;-76
2021/08/29 01:48:14;;;;;;;16.45;5.70;;;;;;;13.57;85.68;99366.02;1787982;78;22116;-76
2021/08/29 01:50:42;;;;;;;19.35;6.05;;;;;;;13.60;85.67;99360.57;1790450;79;20926;-76
2021/08/29 01:53:08;;;;;;;;;;;;;;;13.61;85.58;99360.96;1774892;79;20998;-77
2021/08/29 01:55:35;;;;;;;20.27;5.30;;;;;;;13.60;85.57;99359.26;1761425;79;20280;-77
2021/08/29 01:58:02;;;;;;;7.53;6.08;;;;;;;13.55;85.47;99365.27;1795636;78;20959;-77
2021/08/29 02:00:33;;;;;;;15.05;6.28;;;;;;;13.52;85.53;99364.64;1793286;78;21036;-77
2021/08/29 02:03:00;;;;;;;10.15;5.78;;;;;;;13.49;85.66;99359.12;1794804;78;21511;-77
2021/08/29 02:05:27;;;;;;;11.70;6.28;;;;;;;13.53;85.74;99360.62;1768027;79;21474;-77
2021/08/29 02:07:58;;;;;;;15.03;6.58;;;;;;;13.49;85.68;99361.74;1791111;78;21767;-77
2021/08/29 02:10:25;;;;;;;26.85;6.70;;;;;;;13.43;85.60;99363.45;1788965;78;20969;-77
2021/08/29 02:13:00;;;;;;;13.05;6.10;;;;;;;13.39;85.83;99354.13;1794904;78;21158;-77
2021/08/29 02:15:34;;;;;;;7.53;6.58;;;;;;;13.37;85.79;99353.37;1762025;80;20978;-77
2021/08/29 02:18:24;;;;;;;11.22;7.22;;;;;;;13.38;85.95;99351.11;1733814;80;21006;-77
2021/08/29 02:20:53;;;;;;;7.97;7.17;;;;;;;13.34;86.14;99339.15;1754896;80;21756;-78
2021/08/29 02:23:42;;;;;;;9.40;7.20;;;;;;;13.46;86.12;99348.83;1766839;80;21223;-78
2021/08/29 02:26:09;;;;;;;12.60;8.55;;;;;;;13.50;86.20;99351.64;1681580;84;21991;-78
2021/08/29 02:28:37;;;;;;;9.88;8.65;;;;;;;13.56;86.26;99353.86;1664967;85;21029;-78
2021/08/29 02:31:04;;;;;;;10.05;8.80;;;;;;;13.60;86.23;99352.70;1682132;83;21964;-78
2021/08/29 02:33:31;;;;;;;11.03;9.28;;;;;;;13.58;86.32;99341.49;1674692;84;27603;-77
2021/08/29 02:35:59;;;;;;;9.23;8.30;;;;;;;13.68;86.30;99359.24;1673889;83;20938;-78
2021/08/29 02:38:26;;;;;;;10.03;8.48;;;;;;;13.70;86.32;99354.74;1673051;84;21090;-78
2021/08/29 02:40:59;;;;;;;10.08;9.05;;;;;;;13.73;86.36;99361.09;1675992;84;24003;-78
2021/08/29 02:43:27;;;;;;;10.93;8.60;;;;;;;13.75;86.36;99357.88;1668739;84;20978;-77
2021/08/29 02:45:55;;;;;;;10.03;8.38;;;;;;;13.78;86.43;99361.16;1670802;83;21066;-76
2021/08/29 02:48:23;;;;;;;10.08;8.33;;;;;;;13.83;86.57;99360.84;1669029;84;21089;-76
2021/08/29 02:50:50;;;;;;;9.73;8.68;;;;;;;13.85;86.37;99364.21;1669229;84;21998;-76
2021/08/29 02:53:17;;;;;;;9.65;8.58;;;;;;;13.81;86.39;99347.00;1672487;84;20986;-76
2021/08/29 02:55:49;;;;;;;8.45;7.55;;;;;;;13.87;86.42;99346.59;1682237;83;21014;-76
2021/08/29 02:58:17;;;;;;;9.23;8.05;;;;;;;13.83;86.48;99334.12;1630882;86;21014;-77
2021/08/29 03:00:44;;;;;;;8.65;7.72;;;;;;;13.92;86.42;99337.07;1656006;85;21558;-77
2021/08/29 03:03:12;;;;;;;10.20;7.78;;;;;;;13.91;86.40;99334.92;1656270;85;21076;-77
2021/08/29 03:05:40;;;;;;;7.80;7.10;;;;;;;13.91;86.40;99332.30;1650194;85;21038;-77
2021/08/29 03:08:08;;;;;;;8.50;7.60;;;;;;;13.88;86.27;99339.91;1656677;85;21086;-77
2021/08/29 03:10:35;;;;;;;8.38;7.45;;;;;;;13.89;86.17;99342.05;1651800;84;21556;-77
2021/08/29 03:13:04;;;;;;;8.45;7.65;;;;;;;13.89;86.17;99342.05;1656615;84;21048;-77
2021/08/29 03:15:32;;;;;;;8.20;7.17;;;;;;;13.87;86.42;99345.27;1649572;85;21072;-78
2021/08/29 03:18:01;;;;;;;8.60;7.58;;;;;;;13.86;86.47;99348.82;1658277;84;21033;-77
2021/08/29 03:20:28;;;;;;;10.38;7.10;;;;;;;13.86;86.53;99343.57;1658366;85;20990;-77
2021/08/29 03:22:56;;;;;;;9.90;7.72;;;;;;;13.85;86.51;99351.09;1673594;84;21205;-77
2021/08/29 03:25:23;;;;;;;9.93;7.92;;;;;;;13.76;86.49;99332.03;1656879;84;21067;-77
2021/08/29 03:27:51;;;;;;;;;;;;;;;13.76;86.49;99332.03;1655775;85;21251;-77
2021/08/29 03:30:18;;;;;;;9.15;7.95;;;;;;;13.86;86.64;99360.63;1678675;83;21274;-76
2021/08/29 03:32:45;;;;;;;9.55;7.67;;;;;;;13.84;86.57;99358.13;1695049;83;21511;-77
2021/08/29 03:35:14;;;;;;;8.30;7.50;;;;;;;13.87;86.71;99364.95;1668781;84;21353;-77
2021/08/29 03:37:41;;;;;;;8.83;7.53;;;;;;;13.86;86.62;99360.63;1653412;85;20999;-77
2021/08/29 03:40:09;;;;;;;7.45;6.65;;;;;;;13.86;86.75;99357.56;1674400;83;21094;-77
2021/08/29 03:42:35;;;;;;;;;;;;;;;13.86;86.75;99357.56;1673384;84;20926;-78
2021/08/29 03:45:06;;;;;;;7.85;7.00;;;;;;;13.90;86.75;99363.44;1647059;84;20152;-77
2021/08/29 03:47:35;;;;;;;9.23;7.33;;;;;;;13.90;86.76;99361.29;1628824;85;21165;-78
2021/08/29 03:50:05;;;;;;;8.80;6.70;;;;;;;13.92;86.79;99373.38;1657017;84;21016;-77
2021/08/29 03:52:33;;;;;;;8.03;7.15;;;;;;;13.94;86.83;99368.84;1651033;85;21052;-77
2021/08/29 03:55:00;;;;;;;7.37;6.60;;;;;;;13.96;86.80;99366.96;1659250;84;21184;-77
2021/08/29 03:57:28;;;;;;;9.25;7.17;;;;;;;13.98;86.82;99365.08;1650574;85;20977;-77
2021/08/29 03:59:55;;;;;;;7.45;6.75;;;;;;;13.99;86.77;99372.00;1655077;84;21487;-77
2021/08/29 04:02:23;;;;;;;10.63;7.65;;;;;;;13.98;86.74;99366.88;1651715;85;21003;-77
2021/08/29 04:04:50;;;;;;;7.90;6.40;;;;;;;13.98;86.81;99375.58;1653924;84;21063;-77
2021/08/29 04:07:19;;;;;;;14.35;6.75;;;;;;;13.98;86.77;99380.83;1650041;86;21092;-77
2021/08/29 04:09:48;;;;;;;8.30;7.03;;;;;;;13.96;86.76;99374.83;1669568;84;21424;-77
2021/08/29 04:12:16;;;;;;;7.65;6.60;;;;;;;13.95;86.78;99377.55;1622294;86;21050;-77
2021/08/29 04:14:46;;;;;;;8.25;7.45;;;;;;;13.90;86.54;99375.25;1671798;84;20953;-77
2021/08/29 04:17:15;;;;;;;10.23;7.37;;;;;;;13.83;86.66;99371.33;1670499;84;21042;-77
2021/08/29 04:19:43;;;;;;;9.65;6.53;;;;;;;13.87;86.91;99372.83;1677826;84;21065;-77
2021/08/29 04:22:12;;;;;;;8.38;7.22;;;;;;;13.92;87.01;99374.69;1649859;85;21054;-77
2021/08/29 04:24:39;;;;;;;7.40;6.62;;;;;;;13.96;87.03;99377.45;1646337;86;21942;-77
2021/08/29 04:27:07;;;;;;;8.83;7.53;;;;;;;13.95;86.35;99375.79;1667174;84;21032;-77
2021/08/29 04:29:35;;;;;;;8.73;7.30;;;;;;;13.96;86.94;99378.77;1666764;84;21119;-77
2021/08/29 04:32:04;;;;;;;8.98;7.30;;;;;;;13.99;86.98;99379.88;1636962;86;20957;-78
2021/08/29 04:34:31;;;;;;;11.97;8.08;;;;;;;14.01;87.00;99374.06;1637104;86;21075;-77
2021/08/29 04:36:57;;;;;;;8.45;7.58;;;;;;;14.02;86.95;99371.79;1641949;86;21016;-77
2021/08/29 04:39:24;;;;;;;10.35;7.78;;;;;;;14.06;87.09;99375.91;1640482;84;21056;-77
2021/08/29 04:41:51;;;;;;;10.23;7.20;;;;;;;14.08;87.04;99373.16;1658800;84;21735;-77
2021/08/29 04:44:17;;;;;;;7.97;7.03;;;;;;;14.09;87.00;99377.48;1653261;85;21183;-76
2021/08/29 04:46:44;;;;;;;10.10;7.72;;;;;;;14.06;86.92;99373.28;1700096;83;20963;-77
2021/08/29 04:49:11;;;;;;;9.63;7.40;;;;;;;14.04;86.95;99377.79;1698357;83;21029;-77
2021/08/29 04:51:38;;;;;;;8.33;6.78;;;;;;;14.05;86.99;99368.13;1696637;83;21902;-77
2021/08/29 04:54:04;;;;;;;8.48;7.42;;;;;;;14.01;86.92;99370.13;1653026;85;21876;-77
2021/08/29 04:56:31;;;;;;;8.90;7.50;;;;;;;14.03;87.10;99368.24;1670601;84;21464;-77
2021/08/29 04:58:58;;;;;;;12.00;6.78;;;;;;;14.04;87.09;99364.66;1666199;84;21042;-77
2021/08/29 05:01:27;;;;;;;10.05;7.70;;;;;;;14.07;87.17;99355.74;1669384;84;20992;-77
2021/08/29 05:03:53;;;;;;;16.40;6.83;;;;;;;14.08;87.09;99359.56;1642248;85;21596;-77
2021/08/29 05:06:22;;;;;;;8.75;6.87;;;;;;;14.10;87.08;99348.97;1655011;84;21883;-76
2021/08/29 05:08:49;;;;;;;7.62;6.62;;;;;;;14.10;87.04;99356.37;1699272;83;21007;-77
2021/08/29 05:11:16;;;;;;;6.97;6.20;;;;;;;14.09;86.99;99355.17;1702529;83;20954;-77
2021/08/29 05:13:43;;;;;;;;;;;;;;;14.08;87.02;99346.91;1701825;83;21862;-76
2021/08/29 05:16:10;;;;;;;7.08;5.85;;;;;;;14.07;87.04;99346.08;1698912;83;20114;-77
2021/08/29 05:18:37;;;;;;;8.93;6.05;;;;;;;14.09;87.20;99330.23;1696901;83;21035;-77
2021/08/29 05:21:03;;;;;;;6.62;5.90;;;;;;;14.14;87.24;99325.97;1692728;83;21004;-77
2021/08/29 05:23:30;;;;;;;7.23;6.50;;;;;;;14.21;87.31;99331.18;1693004;83;21645;-77
2021/08/29 05:25:58;;;;;;;8.28;6.05;;;;;;;14.26;87.22;99331.70;1694279;83;21004;-78
2021/08/29 05:28:25;;;;;;;6.10;5.50;;;;;;;14.31;87.25;99338.33;1653332;85;21021;-78
2021/08/29 05:30:52;;;;;;;7.10;6.03;;;;;;;14.37;87.16;99337.51;1624897;86;21108;-79
2021/08/29 05:33:19;;;;;;;6.55;5.83;;;;;;;14.42;87.27;99340.19;1643186;85;21562;-78
2021/08/29 05:35:46;;;;;;;7.83;5.75;;;;;;;14.43;87.15;99335.32;1659965;85;21033;-78
2021/08/29 05:38:13;;;;;;;7.53;6.23;;;;;;;14.45;87.14;99337.37;1653477;86;21844;-77
2021/08/29 05:40:40;;;;;;;7.05;5.70;;;;;;;14.44;87.17;99330.42;1663237;85;22210;-76
2021/08/29 05:43:07;;;;;;;10.45;5.78;;;;;;;14.44;87.08;99336.98;1661358;85;21723;-75
2021/08/29 05:45:34;;;;;;;8.10;6.62;;;;;;;14.39;86.94;99339.09;1662543;85;21044;-75
2021/08/29 05:48:01;;;;;;;6.17;4.92;;;;;;;14.35;87.04;99346.83;1661743;85;21031;-75
2021/08/29 05:50:28;;;;;;;6.87;5.60;;;;;;;14.32;86.98;99352.30;1664601;85;20963;-75
2021/08/29 05:52:55;;;;;;;15.05;5.95;;;;;;;14.28;87.00;99350.80;1663863;85;20976;-75
2021/08/29 05:55:21;;;;;;;6.92;5.83;;;;;;;14.20;86.89;99352.66;1661444;85;21663;-75
2021/08/29 05:57:48;;;;;;;8.03;5.92;;;;;;;14.15;87.07;99349.98;1646971;85;21137;-75
2021/08/29 06:00:16;;;;;;;7.28;5.90;;;;;;;14.17;87.23;99345.44;1694987;83;21052;-75
2021/08/29 06:02:43;;;;;;;11.28;6.78;;;;;;;14.20;87.34;99343.92;1698867;83;20993;-75
2021/08/29 06:05:10;;;;;;;6.80;5.95;;;;;;;14.22;87.22;99338.09;1677469;84;21012;-76
2021/08/29 06:07:37;;;;;;;5.67;5.08;;;;;;;14.20;87.18;99345.23;1679671;84;21770;-76
2021/08/29 06:10:05;;;;;;;5.75;5.20;;;;;;;14.18;87.13;99339.27;1684923;84;21036;-76
2021/08/29 06:12:31;;;;;;;5.62;5.05;;;;;;;14.18;87.21;99343.20;1681929;83;21067;-76
2021/08/29 06:14:58;;;;;;;5.00;4.53;;;;;;;14.14;87.13;99343.03;1659876;82;22001;-76
2021/08/29 06:17:25;;;;;;;7.00;4.62;;;;;;;14.15;87.36;99342.11;1687749;83;21858;-76
2021/08/29 06:19:52;;;;;;;6.12;4.70;;;;;;;14.15;87.37;99331.60;1682890;83;21053;-76
2021/08/29 06:22:19;;;;;;;4.67;4.28;;;;;;;14.07;87.22;99332.95;1666507;84;21099;-76
2021/08/29 06:24:46;;;;;;;4.87;3.90;;;;;;;14.07;87.45;99327.70;1686048;84;20948;-76
2021/08/29 06:27:13;;;;;;;4.15;3.70;;;;;;;14.12;87.58;99323.94;1669498;82;20977;-76
2021/08/29 06:29:40;;;;;;;6.90;3.47;;;;;;;14.17;87.63;99311.31;1672259;84;22322;-76
2021/08/29 06:32:08;;;;;;;3.05;2.75;;;;;;;14.22;87.65;99315.30;1668873;84;21130;-76
2021/08/29 06:34:34;;;;;;;;;;;;;;;14.25;87.67;99307.20;1671932;84;21005;-76
2021/08/29 06:37:01;;;;;;;3.70;3.33;;;;;;;14.25;87.53;99306.38;1673854;83;20168;-77
2021/08/29 06:39:27;;;;;;;3.15;2.72;;;;;;;14.22;87.61;99307.42;1684404;83;21723;-79
2021/08/29 06:41:55;;;;;;;2.87;2.63;;;;;;;14.28;87.78;99303.53;1613852;86;21720;-78
2021/08/29 06:44:21;;;;;;;3.10;2.80;;;;;;;14.33;87.75;99294.88;1656271;85;21212;-78
2021/08/29 06:46:48;;;;;;;4.57;2.70;;;;;;;14.35;87.70;99292.98;1650243;85;20965;-79
2021/08/29 06:49:15;;;;;;;2.80;2.43;;;;;;;14.38;87.70;99294.08;1651920;85;21220;-78
2021/08/29 06:51:42;;;;;;;7.43;2.33;;;;;;;14.41;87.67;99290.41;1650001;85;21307;-77
2021/08/29 06:54:08;;;;;;;1.90;1.80;;;;;;;14.42;87.75;99296.84;1653186;85;21044;-78
2021/08/29 06:56:35;;;;;;;2.90;1.90;;;;;;;14.43;87.63;99285.89;1650683;85;21247;-79
2021/08/29 06:59:02;;;;;;;2.20;1.70;;;;;;;14.41;87.65;99287.78;1650568;85;21583;-78
2021/08/29 07:01:29;;;;;;;2.70;1.92;;;;;;;14.41;87.69;99283.36;1651518;84;24568;-74
2021/08/29 07:03:56;;;;;;;1.98;1.40;;;;;;;14.43;87.75;99286.73;1654292;85;21576;-78
2021/08/29 07:06:22;;;;;;;3.80;1.33;;;;;;;14.44;87.77;99280.52;1647159;85;21124;-77
2021/08/29 07:08:49;;;;;;;2.65;1.42;;;;;;;14.44;87.73;99287.08;1650519;85;20998;-78
2021/08/29 07:11:20;;;;;;;2.08;1.12;;;;;;;14.45;87.84;99282.21;1651316;85;21053;-78
2021/08/29 07:13:47;;;;;;;4.20;1.50;;;;;;;14.52;87.95;99289.21;1648536;85;21751;-75
2021/08/29 07:16:17;;;;;;;1.52;1.00;;;;;;;14.54;87.87;99280.27;1649177;85;21045;-76
2021/08/29 07:18:44;;;;;;;2.72;0.90;;;;;;;14.59;87.92;99281.27;1648655;85;22469;-76
2021/08/29 07:21:10;;;;;;;2.77;0.90;;;;;;;14.55;87.71;99278.00;1651748;85;21076;-77
2021/08/29 07:23:37;;;;;;;2.47;2.02;;;;;;;14.52;87.73;99272.97;1647961;85;21097;-78
2021/08/29 07:26:04;;;;;;;1.75;1.35;;;;;;;14.55;87.92;99275.38;1644037;85;21079;-81
2021/08/29 07:28:31;;;;;;;1.07;1.00;;;;;;;14.54;87.89;99278.96;1640257;86;21180;-81
2021/08/29 07:30:58;;;;;;;1.90;1.45;;;;;;;14.54;87.92;99275.02;1617999;86;21060;-80
2021/08/29 07:33:24;;;;;;;3.10;1.20;;;;;;;14.58;88.09;99270.86;1634898;86;21091;-81
2021/08/29 07:35:51;;;;;;;1.82;1.55;;;;;;;14.67;88.13;99264.94;1634545;86;21031;-81
2021/08/29 07:38:18;;;;;;;1.80;1.30;;;;;;;14.74;88.23;99264.88;1637530;86;20972;-78
2021/08/29 07:40:45;;;;;;;2.47;1.55;;;;;;;14.77;88.21;99269.91;1638992;86;20981;-79
2021/08/29 07:43:11;;;;;;;2.55;1.75;;;;;;;14.74;88.02;99265.72;1615781;86;21165;-80
2021/08/29 07:45:38;;;;;;;3.27;2.07;;;;;;;14.78;88.29;99263.70;1635374;86;21031;-80
2021/08/29 07:48:06;;;;;;;3.12;1.60;;;;;;;14.86;88.36;99262.67;1634207;86;21248;-79
2021/08/29 07:50:33;;;;;;;2.98;1.90;;;;;;;14.89;88.13;99266.88;1641295;85;21045;-78
2021/08/29 07:52:59;;;;;;;2.42;1.70;;;;;;;14.88;88.23;99267.83;1636675;86;21052;-78
2021/08/29 07:55:26;;;;;;;1.85;1.75;;;;;;;14.85;88.15;99264.95;1638987;86;21532;-77
2021/08/29 07:57:53;;;;;;;5.60;2.22;;;;;;;14.79;88.13;99270.66;1633643;86;21819;-79
2021/08/29 08:00:20;;;;;;;1.75;1.65;;;;;;;14.75;88.19;99269.17;1635856;86;20992;-79
2021/08/29 08:02:47;;;;;;;1.95;1.65;;;;;;;14.72;88.27;99269.40;1635357;85;20962;-79
2021/08/29 08:05:14;;;;;;;2.57;1.73;;;;;;;14.75;88.43;99266.55;1640624;86;21052;-77
2021/08/29 08:07:40;;;;;;;1.62;1.52;;;;;;;14.77;88.47;99268.60;1636612;86;21172;-76
2021/08/29 08:10:09;;;;;;;5.40;1.67;;;;;;;14.78;88.52;99271.58;1629858;86;21038;-76
2021/08/29 08:12:36;;;;;;;2.30;1.90;;;;;;;14.81;88.50;99270.05;1638507;86;21606;-75
2021/08/29 08:15:04;;;;;;;3.00;2.05;;;;;;;14.87;88.60;99276.20;1636061;85;21087;-75
2021/08/29 08:17:31;;;;;;;2.83;2.15;;;;;;;14.82;88.50;99274.38;1636023;86;20980;-75
2021/08/29 08:19:58;;;;;;;2.15;1.90;;;;;;;14.79;88.64;99275.91;1636602;86;21546;-75
2021/08/29 08:22:25;;;;;;;2.72;2.47;;;;;;;14.78;88.70;99267.16;1634139;86;21134;-77
2021/08/29 08:24:52;;;;;;;2.80;2.50;;;;;;;14.82;88.79;99271.74;1615017;87;21030;-77
2021/08/29 08:27:22;;;;;;;3.33;2.80;;;;;;;14.86;88.92;99275.81;1644327;85;21032;-76
2021/08/29 08:29:49;;;;;;;3.77;2.72;;;;;;;14.93;89.12;99273.12;1642347;86;21005;-77
2021/08/29 08:32:15;;;;;;;4.58;3.35;;;;;;;15.02;89.22;99270.78;1624162;87;26825;-77
2021/08/29 08:34:42;;;;;;;3.70;2.75;;;;;;;15.03;88.93;99271.13;1641852;85;21052;-77
2021/08/29 08:37:09;;;;;;;4.53;3.47;;;;;;;15.02;88.84;99268.98;1624144;85;21617;-77
2021/08/29 08:39:36;;;;;;;6.28;4.70;;;;;;;15.03;88.92;99271.13;1643002;86;21073;-77
2021/08/29 08:42:04;;;;;;;4.12;3.75;;;;;;;14.97;89.10;99276.36;1638829;85;21010;-78
2021/08/29 08:44:31;;;;;;;4.30;3.90;;;;;;;14.91;89.08;99278.95;1680284;84;20975;-78
2021/08/29 08:47:02;;;;;;;4.67;3.80;;;;;;;14.88;89.43;99273.92;1684788;83;21061;-77
2021/08/29 08:49:30;;;;;;;5.78;3.95;;;;;;;14.90;89.52;99279.92;1680879;83;21045;-79
2021/08/29 08:51:58;;;;;;;;;;;;;;;14.98;89.54;99283.28;1665486;83;21112;-79
2021/08/29 08:54:26;;;;;;;3.20;2.75;;;;;;;15.13;89.81;99274.78;1685723;83;20154;-80
2021/08/29 08:56:54;;;;;;;2.30;2.10;;;;;;;15.31;89.77;99281.30;1684614;83;22179;-79
2021/08/29 08:59:22;;;;;;;4.10;2.80;;;;;;;15.56;89.97;99284.74;1685703;83;21108;-77
2021/08/29 09:01:49;;;;;;;2.30;2.08;;;;;;;15.76;89.73;99283.27;1683365;83;21804;-76
2021/08/29 09:04:16;;;;;;;5.12;2.75;;;;;;;15.93;89.39;99292.52;1688952;83;21023;-77
2021/08/29 09:06:48;;;;;;;2.60;2.00;;;;;;;16.02;89.21;99299.70;1693560;83;21057;-77
2021/08/29 09:09:15;;;;;;;4.22;2.20;;;;;;;16.10;89.06;99307.41;1662790;85;21006;-77
2021/08/29 09:11:41;;;;;;;4.00;2.30;;;;;;;16.23;88.98;99313.88;1688863;83;21729;-78
2021/08/29 09:14:09;;;;;;;6.22;2.65;;;;;;;16.28;88.50;99305.14;1686442;83;21346;-79
2021/08/29 09:16:37;;;;;;;3.95;2.22;;;;;;;16.28;88.57;99306.45;1663213;85;21002;-77
2021/08/29 09:19:07;;;;;;;7.10;2.37;;;;;;;16.30;88.62;99320.36;1684454;82;21005;-78
2021/08/29 09:21:39;;;;;;;4.10;1.95;;;;;;;16.39;88.38;99317.97;1660710;85;21063;-79
2021/08/29 09:24:12;;;;;;;2.50;1.47;;;;;;;16.41;88.45;99297.59;1683811;83;21067;-80
2021/08/29 09:26:43;;;;;;;3.67;1.67;;;;;;;16.42;87.97;99307.19;1684548;83;21024;-77
2021/08/29 09:29:22;;;;;;;4.62;1.98;;;;;;;16.49;88.14;99305.73;1686452;83;21001;-75
2021/08/29 09:31:59;;;;;;;2.35;1.57;;;;;;;16.64;88.29;99301.91;1661806;85;21633;-75
2021/08/29 09:34:26;;;;;;;3.65;1.80;;;;;;;16.73;87.72;99303.81;1661609;84;21168;-74
2021/08/29 09:37:03;;;;;;;2.92;1.62;;;;;;;16.75;87.78;99311.12;1656575;85;21382;-77
2021/08/29 09:39:29;;;;;;;6.72;1.60;;;;;;;16.75;87.61;99315.08;1641620;84;21084;-77
2021/08/29 09:42:05;;;;;;;2.08;1.50;;;;;;;16.68;87.27;99313.88;1660187;84;21013;-75
2021/08/29 09:44:34;;;;;;;3.50;1.85;;;;;;;16.60;87.18;99318.91;1659347;85;21076;-76
2021/08/29 09:47:06;;;;;;;2.17;1.45;;;;;;;16.54;87.33;99327.30;1660904;84;21133;-75
2021/08/29 09:49:36;;;;;;;2.00;1.40;;;;;;;16.49;87.44;99321.55;1617758;86;22262;-76
2021/08/29 09:52:06;;;;;;;2.05;1.42;;;;;;;16.46;87.33;99327.06;1654574;84;20966;-75
2021/08/29 09:54:42;;;;;;;2.47;1.20;;;;;;;16.46;87.39;99327.06;1659650;85;21016;-77
2021/08/29 09:57:12;;;;;;;1.95;1.50;;;;;;;16.57;87.38;99334.97;1658528;85;20939;-75
2021/08/29 09:59:53;;;;;;;3.42;1.60;;;;;;;16.68;87.45;99336.77;1654919;85;21030;-76
2021/08/29 10:02:27;;;;;;;3.65;1.82;;;;;;;16.83;87.01;99332.10;1660721;84;21018;-78
2021/08/29 10:05:18;;;;;;;1.70;1.40;;;;;;;16.91;86.90;99336.28;1662197;85;21033;-77
2021/08/29 10:08:08;;;;;;;2.35;1.52;;;;;;;16.91;86.67;99340.24;1658088;84;21018;-78
2021/08/29 10:10:38;;;;;;;3.25;1.57;;;;;;;16.65;86.11;99336.52;1656833;85;21077;-78
2021/08/29 10:13:06;;;;;;;2.45;1.47;;;;;;;16.54;86.08;99336.52;1653009;85;21013;-78
2021/08/29 10:15:37;;;;;;;2.83;1.32;;;;;;;16.51;85.92;99331.50;1646471;86;21601;-75
2021/08/29 10:18:04;;;;;;;2.35;1.40;;;;;;;16.50;86.04;99333.78;1692307;83;21607;-73
2021/08/29 10:20:33;;;;;;;;;;;;;;;16.65;86.58;99335.20;1695064;83;21079;-77
2021/08/29 10:23:00;;;;;;;1.82;1.30;;;;;;;16.73;86.14;99342.03;1693181;83;20265;-78
2021/08/29 10:25:31;;;;;;;1.95;1.32;;;;;;;16.69;86.08;99341.93;1691644;83;21008;-78
2021/08/29 10:28:06;;;;;;;3.60;1.50;;;;;;;16.48;85.13;99333.06;1674254;84;21080;-78
2021/08/29 10:30:34;;;;;;;1.50;1.22;;;;;;;16.30;85.86;99338.80;1690155;83;21816;-79
2021/08/29 10:33:04;;;;;;;1.55;1.20;;;;;;;16.29;85.92;99356.86;1692038;82;21067;-79
2021/08/29 10:35:33;;;;;;;4.90;1.52;;;;;;;16.28;85.96;99351.24;1692951;83;20933;-78
2021/08/29 10:38:00;;;;;;;2.70;1.40;;;;;;;16.28;85.59;99359.14;1694312;83;21068;-78
2021/08/29 10:40:29;;;;;;;2.45;1.05;;;;;;;16.11;85.54;99351.70;1693092;83;21653;-79
2021/08/29 10:42:59;;;;;;;2.00;1.27;;;;;;;16.19;86.13;99351.95;1671117;84;21143;-79
2021/08/29 10:45:26;;;;;;;2.40;1.17;;;;;;;16.25;85.84;99358.06;1647766;84;20954;-78
2021/08/29 10:47:55;;;;;;;1.25;1.15;;;;;;;16.41;86.22;99358.19;1671405;84;21019;-80
2021/08/29 10:50:23;;;;;;;4.65;1.57;;;;;;;16.60;86.00;99367.67;1641199;85;20975;-80
2021/08/29 10:52:52;;;;;;;2.30;1.50;;;;;;;16.82;85.99;99364.71;1643682;85;21120;-80
2021/08/29 10:55:19;;;;;;;2.17;1.40;;;;;;;17.01;85.67;99370.20;1664546;83;21846;-80
2021/08/29 10:57:49;;;;;;;3.25;1.20;;;;;;;17.12;85.40;99375.95;1652113;85;21069;-79
2021/08/29 11:00:27;;;;;;;2.42;1.55;;;;;;;17.16;83.67;99371.61;1644639;85;21117;-79
2021/08/29 11:02:55;;;;;;;3.42;1.57;;;;;;;17.14;84.43;99377.97;1649967;85;22139;-79
2021/08/29 11:05:31;;;;;;;;;;;;;;;17.02;83.31;99370.55;1656788;85;21275;-77
2021/08/29 11:07:59;;;;;;;2.90;1.52;;;;;;;16.98;83.91;99375.24;1649093;85;20261;-77
2021/08/29 11:10:46;;;;;;;1.30;1.10;;;;;;;17.14;83.64;99381.47;1653552;85;21077;-77
2021/08/29 11:13:36;;;;;;;;;;;;;;;17.39;84.47;99382.97;1654015;85;22258;-78
2021/08/29 11:16:14;;;;;;;2.62;1.35;;;;;;;17.59;83.93;99377.39;1687420;83;20092;-77
2021/08/29 11:19:05;;;;;;;4.58;1.35;;;;;;;17.96;84.31;99369.09;1651958;85;21306;-77
2021/08/29 11:21:40;;;;;;;1.80;1.20;;;;;;;18.08;83.32;99372.02;1689398;83;21013;-78
2021/08/29 11:24:07;;;;;;;2.72;1.60;;;;;;;18.11;82.44;99365.15;1686653;83;21046;-78
2021/08/29 11:26:43;;;;;;;3.85;1.60;;;;;;;17.95;81.42;99375.81;1688696;83;21328;-76
2021/08/29 11:29:43;;;;;;;1.77;1.53;;;;;;;17.93;81.71;99372.48;1687055;83;21023;-78
2021/08/29 11:32:33;;;;;;;2.72;1.40;;;;;;;17.98;78.29;99371.13;1685250;83;21123;-78
2021/08/29 11:35:23;;;;;;;2.15;1.72;;;;;;;17.90;81.37;99370.93;1687391;83;21078;-78
2021/08/29 11:38:19;;;;;;;1.87;1.27;;;;;;;18.01;80.83;99362.95;1686902;83;21519;-77
2021/08/29 11:41:18;;;;;;;2.02;1.35;;;;;;;18.10;81.21;99362.16;1678455;84;20980;-78
2021/08/29 11:43:52;;;;;;;1.60;1.40;;;;;;;18.17;81.08;99370.89;1641495;86;22321;-77
2021/08/29 11:46:26;;;;;;;4.12;1.60;;;;;;;18.18;80.78;99365.98;1635148;86;21429;-77
2021/08/29 11:48:56;;;;;;;2.77;1.37;;;;;;;18.21;79.97;99368.36;1620971;86;21171;-78